Time,TemperatureF,DewpointF,PressureIn,WindDirection,WindDirectionDegrees,WindSpeedMPH,WindSpeedGustMPH,Humidity,HourlyPrecipIn,Conditions,Clouds,dailyrainin,SoftwareType,DateUTC
2013-01-14 00:02:00,-18.6,-23.1,30.93,South,171,0.0,1.0,79,0.00,,,0.00,meteohub,2013-01-14 07:02:00,
2013-01-14 00:07:00,-18.6,-23.1,30.93,South,171,0.0,1.0,79,0.00,,,0.00,meteohub,2013-01-14 07:07:00,
2013-01-14 00:12:00,-18.6,-22.9,30.93,South,171,0.0,0.0,80,0.00,,,0.00,meteohub,2013-01-14 07:12:00,
2013-01-14 00:17:00,-18.8,-23.3,30.93,South,171,0.0,0.0,79,0.00,,,0.00,meteohub,2013-01-14 07:17:00,
2013-01-14 00:22:00,-18.9,-23.4,30.93,South,171,0.0,1.0,79,0.00,,,0.00,meteohub,2013-01-14 07:22:00,
2013-01-14 00:27:00,-18.9,-23.4,30.93,South,171,0.0,1.0,79,0.00,,,0.00,meteohub,2013-01-14 07:27:00,
2013-01-14 00:32:00,-18.9,-23.4,30.93,South,171,0.0,1.0,79,0.00,,,0.00,meteohub,2013-01-14 07:32:00,
2013-01-14 00:42:00,-19.1,-23.6,30.93,South,171,0.0,1.0,79,0.00,,,0.00,meteohub,2013-01-14 07:42:00,
2013-01-14 00:47:00,-19.7,-24.3,30.93,South,171,0.0,1.0,78,0.00,,,0.00,meteohub,2013-01-14 07:47:00,
2013-01-14 00:52:00,-19.7,-24.2,30.93,South,171,0.0,1.0,79,0.00,,,0.00,meteohub,2013-01-14 07:52:00,
2013-01-14 00:57:00,-19.7,-24.0,30.93,South,171,0.0,1.0,80,0.00,,,0.00,meteohub,2013-01-14 07:57:00,
2013-01-14 01:07:00,-18.9,-22.9,30.93,South,171,0.0,1.0,81,0.00,,,0.00,meteohub,2013-01-14 08:07:00,
2013-01-14 01:12:00,-18.8,-22.7,30.93,South,171,0.0,0.0,81,0.00,,,0.00,meteohub,2013-01-14 08:12:00,
2013-01-14 01:17:00,-18.2,-22.2,30.93,South,171,0.0,0.0,81,0.00,,,0.00,meteohub,2013-01-14 08:17:00,
2013-01-14 01:22:00,-18.2,-22.5,30.93,South,171,0.0,0.0,80,0.00,,,0.00,meteohub,2013-01-14 08:22:00,
2013-01-14 01:27:00,-18.6,-23.3,30.93,South,171,1.0,0.0,78,0.00,,,0.00,meteohub,2013-01-14 08:27:00,
2013-01-14 01:32:00,-19.1,-24.2,30.93,South,171,0.0,2.0,77,0.00,,,0.00,meteohub,2013-01-14 08:32:00,
2013-01-14 01:37:00,-19.3,-24.0,30.93,South,171,0.0,2.0,78,0.00,,,0.00,meteohub,2013-01-14 08:37:00,
2013-01-14 01:42:00,-19.3,-23.8,30.93,South,171,0.0,2.0,79,0.00,,,0.00,meteohub,2013-01-14 08:42:00,
2013-01-14 01:47:00,-18.9,-23.3,30.93,South,171,0.0,1.0,80,0.00,,,0.00,meteohub,2013-01-14 08:47:00,
2013-01-14 01:52:00,-18.6,-22.9,30.94,South,171,0.0,2.0,80,0.00,,,0.00,meteohub,2013-01-14 08:52:00,
2013-01-14 01:57:00,-18.6,-22.9,30.94,South,171,0.0,2.0,80,0.00,,,0.00,meteohub,2013-01-14 08:57:00,
2013-01-14 02:02:00,-18.2,-22.5,30.94,South,171,0.0,2.0,80,0.00,,,0.00,meteohub,2013-01-14 09:02:00,
2013-01-14 02:07:00,-18.0,-22.4,30.94,South,171,0.0,1.0,80,0.00,,,0.00,meteohub,2013-01-14 09:07:00,
2013-01-14 02:12:00,-17.9,-22.2,30.94,South,171,0.0,1.0,80,0.00,,,0.00,meteohub,2013-01-14 09:12:00,
2013-01-14 02:17:00,-17.7,-22.0,30.93,South,171,0.0,0.0,80,0.00,,,0.00,meteohub,2013-01-14 09:17:00,
2013-01-14 02:22:00,-17.5,-21.8,30.93,South,171,0.0,0.0,80,0.00,,,0.00,meteohub,2013-01-14 09:22:00,
2013-01-14 02:27:00,-17.3,-21.6,30.94,South,171,1.0,0.0,80,0.00,,,0.00,meteohub,2013-01-14 09:27:00,
2013-01-14 02:32:00,-17.0,-21.3,30.94,South,171,0.0,1.0,80,0.00,,,0.00,meteohub,2013-01-14 09:32:00,
2013-01-14 02:37:00,-16.8,-21.1,30.94,South,171,0.0,1.0,80,0.00,,,0.00,meteohub,2013-01-14 09:37:00,
2013-01-14 02:42:00,-16.6,-20.9,30.94,South,171,0.0,1.0,80,0.00,,,0.00,meteohub,2013-01-14 09:42:00,
2013-01-14 02:47:00,-16.4,-20.7,30.95,South,171,0.0,1.0,80,0.00,,,0.00,meteohub,2013-01-14 09:47:00,
2013-01-14 02:52:00,-16.2,-20.6,30.95,South,171,0.0,1.0,80,0.00,,,0.00,meteohub,2013-01-14 09:52:00,
2013-01-14 02:57:00,-16.1,-20.2,30.95,South,171,0.0,1.0,81,0.00,,,0.00,meteohub,2013-01-14 09:57:00,
2013-01-14 03:02:00,-15.9,-20.2,30.95,South,171,0.0,1.0,80,0.00,,,0.00,meteohub,2013-01-14 10:02:00,
2013-01-14 03:07:00,-15.5,-19.8,30.94,South,171,0.0,1.0,80,0.00,,,0.00,meteohub,2013-01-14 10:07:00,
2013-01-14 03:12:00,-15.5,-20.0,30.94,South,171,0.0,1.0,79,0.00,,,0.00,meteohub,2013-01-14 10:12:00,
2013-01-14 03:17:00,-15.7,-20.2,30.94,South,171,0.0,1.0,79,0.00,,,0.00,meteohub,2013-01-14 10:17:00,
2013-01-14 03:22:00,-15.7,-20.2,30.94,South,171,0.0,1.0,79,0.00,,,0.00,meteohub,2013-01-14 10:22:00,
2013-01-14 03:27:00,-15.5,-20.0,30.95,South,171,0.0,1.0,79,0.00,,,0.00,meteohub,2013-01-14 10:27:00,
2013-01-14 03:32:00,-15.3,-19.7,30.94,South,171,0.0,1.0,80,0.00,,,0.00,meteohub,2013-01-14 10:32:00,
2013-01-14 03:37:00,-15.3,-19.7,30.94,South,171,0.0,1.0,80,0.00,,,0.00,meteohub,2013-01-14 10:37:00,
2013-01-14 03:47:00,-15.2,-19.8,30.94,South,171,0.0,1.0,79,0.00,,,0.00,meteohub,2013-01-14 10:47:00,
2013-01-14 03:52:00,-15.3,-19.8,30.93,South,171,0.0,1.0,79,0.00,,,0.00,meteohub,2013-01-14 10:52:00,
2013-01-14 03:57:00,-15.3,-19.8,30.93,South,171,0.0,1.0,79,0.00,,,0.00,meteohub,2013-01-14 10:57:00,
2013-01-14 04:02:00,-15.3,-19.8,30.93,South,171,0.0,1.0,79,0.00,,,0.00,meteohub,2013-01-14 11:02:00,
2013-01-14 04:07:00,-15.3,-19.7,30.93,South,171,0.0,1.0,80,0.00,,,0.00,meteohub,2013-01-14 11:07:00,
2013-01-14 04:12:00,-15.2,-19.5,30.93,South,171,0.0,1.0,80,0.00,,,0.00,meteohub,2013-01-14 11:12:00,
2013-01-14 04:17:00,-15.2,-19.8,30.92,South,171,0.0,1.0,79,0.00,,,0.00,meteohub,2013-01-14 11:17:00,
2013-01-14 04:27:00,-15.0,-19.3,30.92,South,171,0.0,0.0,80,0.00,,,0.00,meteohub,2013-01-14 11:27:00,
2013-01-14 04:32:00,-14.8,-19.1,30.92,South,171,0.0,0.0,80,0.00,,,0.00,meteohub,2013-01-14 11:32:00,
2013-01-14 04:42:00,-15.2,-20.0,30.91,South,171,0.0,0.0,78,0.00,,,0.00,meteohub,2013-01-14 11:42:00,
2013-01-14 04:47:00,-15.3,-19.8,30.91,South,171,0.0,0.0,79,0.00,,,0.00,meteohub,2013-01-14 11:47:00,
2013-01-14 04:57:00,-15.5,-20.0,30.91,South,171,0.0,0.0,79,0.00,,,0.00,meteohub,2013-01-14 11:57:00,
2013-01-14 05:02:00,-15.3,-19.7,30.91,South,171,0.0,0.0,80,0.00,,,0.00,meteohub,2013-01-14 12:02:00,
2013-01-14 05:07:00,-15.2,-19.5,30.91,South,171,0.0,0.0,80,0.00,,,0.00,meteohub,2013-01-14 12:07:00,
2013-01-14 05:17:00,-15.5,-20.4,30.91,South,171,0.0,1.0,78,0.00,,,0.00,meteohub,2013-01-14 12:17:00,
2013-01-14 05:22:00,-15.9,-20.7,30.91,South,171,0.0,1.0,78,0.00,,,0.00,meteohub,2013-01-14 12:22:00,
2013-01-14 05:32:00,-16.2,-21.1,30.91,South,171,0.0,0.0,78,0.00,,,0.00,meteohub,2013-01-14 12:32:00,
2013-01-14 05:42:00,-16.4,-21.3,30.91,South,171,0.0,0.0,78,0.00,,,0.00,meteohub,2013-01-14 12:42:00,
2013-01-14 05:47:00,-16.8,-21.6,30.91,South,171,0.0,0.0,78,0.00,,,0.00,meteohub,2013-01-14 12:47:00,
2013-01-14 05:52:00,-17.1,-22.2,30.92,South,171,0.0,0.0,77,0.00,,,0.00,meteohub,2013-01-14 12:52:00,
2013-01-14 05:57:00,-17.5,-22.5,30.92,South,171,0.0,0.0,77,0.00,,,0.00,meteohub,2013-01-14 12:57:00,
2013-01-14 06:02:00,-17.5,-22.4,30.92,South,171,0.0,0.0,78,0.00,,,0.00,meteohub,2013-01-14 13:02:00,
2013-01-14 06:07:00,-17.5,-22.0,30.92,South,171,0.0,0.0,79,0.00,,,0.00,meteohub,2013-01-14 13:07:00,
2013-01-14 06:17:00,-17.7,-22.5,30.92,South,171,0.0,0.0,78,0.00,,,0.00,meteohub,2013-01-14 13:17:00,
2013-01-14 06:22:00,-18.0,-23.1,30.92,South,171,0.0,1.0,77,0.00,,,0.00,meteohub,2013-01-14 13:22:00,
2013-01-14 06:27:00,-18.4,-23.4,30.93,South,171,0.0,1.0,77,0.00,,,0.00,meteohub,2013-01-14 13:27:00,
2013-01-14 06:32:00,-18.8,-23.8,30.93,South,171,0.0,1.0,77,0.00,,,0.00,meteohub,2013-01-14 13:32:00,
2013-01-14 06:37:00,-18.8,-23.4,30.94,South,171,0.0,1.0,78,0.00,,,0.00,meteohub,2013-01-14 13:37:00,
2013-01-14 06:42:00,-18.9,-24.0,30.94,South,171,0.0,0.0,77,0.00,,,0.00,meteohub,2013-01-14 13:42:00,
2013-01-14 06:47:00,-19.1,-24.2,30.94,South,171,0.0,0.0,77,0.00,,,0.00,meteohub,2013-01-14 13:47:00,
2013-01-14 06:52:00,-19.5,-24.5,30.94,South,171,0.0,0.0,77,0.00,,,0.00,meteohub,2013-01-14 13:52:00,
2013-01-14 06:57:00,-19.7,-24.7,30.94,South,171,0.0,0.0,77,0.00,,,0.00,meteohub,2013-01-14 13:57:00,
2013-01-14 07:02:00,-19.8,-24.9,30.94,South,171,0.0,0.0,77,0.00,,,0.00,meteohub,2013-01-14 14:02:00,
2013-01-14 07:07:00,-19.7,-24.2,30.95,South,171,0.0,1.0,79,0.00,,,0.00,meteohub,2013-01-14 14:07:00,
2013-01-14 07:12:00,-19.5,-24.0,30.95,South,171,0.0,1.0,79,0.00,,,0.00,meteohub,2013-01-14 14:12:00,
2013-01-14 07:17:00,-19.8,-24.9,30.95,South,171,0.0,1.0,77,0.00,,,0.00,meteohub,2013-01-14 14:17:00,
2013-01-14 07:22:00,-20.4,-25.2,30.95,South,171,0.0,1.0,77,0.00,,,0.00,meteohub,2013-01-14 14:22:00,
2013-01-14 07:27:00,-20.4,-25.2,30.95,South,171,0.0,1.0,77,0.00,,,0.00,meteohub,2013-01-14 14:27:00,
2013-01-14 07:32:00,-20.6,-25.4,30.95,South,171,0.0,1.0,77,0.00,,,0.00,meteohub,2013-01-14 14:32:00,
2013-01-14 07:37:00,-20.6,-25.2,30.96,South,171,0.0,1.0,78,0.00,,,0.00,meteohub,2013-01-14 14:37:00,
2013-01-14 07:42:00,-20.6,-25.2,30.96,South,171,0.0,0.0,78,0.00,,,0.00,meteohub,2013-01-14 14:42:00,
2013-01-14 07:52:00,-20.2,-24.9,30.97,South,171,0.0,0.0,78,0.00,,,0.00,meteohub,2013-01-14 14:52:00,
2013-01-14 07:57:00,-20.0,-24.7,30.97,South,171,0.0,0.0,78,0.00,,,0.00,meteohub,2013-01-14 14:57:00,
2013-01-14 08:02:00,-19.8,-24.5,30.97,South,171,0.0,0.0,78,0.00,,,0.00,meteohub,2013-01-14 15:02:00,
2013-01-14 08:07:00,-19.8,-24.3,30.97,South,171,0.0,0.0,79,0.00,,,0.00,meteohub,2013-01-14 15:07:00,
2013-01-14 08:12:00,-19.8,-24.5,30.97,South,171,0.0,1.0,78,0.00,,,0.00,meteohub,2013-01-14 15:12:00,
2013-01-14 08:22:00,-19.5,-24.0,30.98,South,171,0.0,1.0,79,0.00,,,0.00,meteohub,2013-01-14 15:22:00,
2013-01-14 08:27:00,-18.8,-23.1,30.98,South,171,0.0,0.0,80,0.00,,,0.00,meteohub,2013-01-14 15:27:00,
2013-01-14 08:32:00,-18.9,-23.6,30.98,South,171,0.0,1.0,78,0.00,,,0.00,meteohub,2013-01-14 15:32:00,
2013-01-14 08:37:00,-18.9,-23.6,30.98,South,171,0.0,1.0,78,0.00,,,0.00,meteohub,2013-01-14 15:37:00,
2013-01-14 08:42:00,-18.6,-23.3,30.98,South,171,0.0,1.0,78,0.00,,,0.00,meteohub,2013-01-14 15:42:00,
2013-01-14 08:52:00,-17.3,-21.6,30.98,South,171,0.0,1.0,80,0.00,,,0.00,meteohub,2013-01-14 15:52:00,
2013-01-14 08:57:00,-16.4,-20.6,30.98,South,171,0.0,1.0,81,0.00,,,0.00,meteohub,2013-01-14 15:57:00,
2013-01-14 09:02:00,-15.3,-19.1,30.98,South,171,0.0,0.0,82,0.00,,,0.00,meteohub,2013-01-14 16:02:00,
2013-01-14 09:07:00,-14.3,-18.2,30.98,South,171,0.0,0.0,82,0.00,,,0.00,meteohub,2013-01-14 16:07:00,
2013-01-14 09:17:00,-13.7,-18.6,30.98,South,171,1.0,0.0,78,0.00,,,0.00,meteohub,2013-01-14 16:17:00,
2013-01-14 09:22:00,-13.5,-18.4,30.98,South,171,0.0,1.0,78,0.00,,,0.00,meteohub,2013-01-14 16:22:00,
2013-01-14 09:27:00,-13.7,-18.8,30.98,South,171,0.0,1.0,77,0.00,,,0.00,meteohub,2013-01-14 16:27:00,
2013-01-14 09:32:00,-13.4,-18.2,30.98,South,171,0.0,1.0,78,0.00,,,0.00,meteohub,2013-01-14 16:32:00,
2013-01-14 09:42:00,-12.6,-17.5,30.97,South,171,0.0,0.0,78,0.00,,,0.00,meteohub,2013-01-14 16:42:00,
2013-01-14 09:52:00,-11.4,-16.2,30.97,South,171,0.0,1.0,78,0.00,,,0.00,meteohub,2013-01-14 16:52:00,
2013-01-14 09:57:00,-11.6,-17.0,30.97,South,171,0.0,2.0,76,0.00,,,0.00,meteohub,2013-01-14 16:57:00,
2013-01-14 10:07:00,-10.8,-15.7,30.96,South,171,0.0,2.0,78,0.00,,,0.00,meteohub,2013-01-14 17:07:00,
2013-01-14 10:12:00,-10.1,-15.2,30.97,South,171,0.0,2.0,78,0.00,,,0.00,meteohub,2013-01-14 17:12:00,
2013-01-14 10:17:00,-8.9,-13.5,30.97,South,171,0.0,1.0,79,0.00,,,0.00,meteohub,2013-01-14 17:17:00,
2013-01-14 10:22:00,-8.1,-13.4,30.96,South,171,0.0,1.0,77,0.00,,,0.00,meteohub,2013-01-14 17:22:00,
2013-01-14 10:27:00,-7.6,-13.2,30.96,South,171,1.0,2.0,76,0.00,,,0.00,meteohub,2013-01-14 17:27:00,
2013-01-14 10:32:00,-7.1,-12.6,30.96,South,171,1.0,2.0,76,0.00,,,0.00,meteohub,2013-01-14 17:32:00,
2013-01-14 10:37:00,-6.3,-12.1,30.96,South,171,0.0,2.0,75,0.00,,,0.00,meteohub,2013-01-14 17:37:00,
2013-01-14 10:42:00,-6.0,-12.5,30.95,SW,223,2.0,3.0,73,0.00,,,0.00,meteohub,2013-01-14 17:42:00,
2013-01-14 10:47:00,-5.4,-12.5,30.95,West,264,2.0,3.0,71,0.00,,,0.00,meteohub,2013-01-14 17:47:00,
2013-01-14 10:52:00,-5.3,-12.5,30.95,West,275,2.0,3.0,70,0.00,,,0.00,meteohub,2013-01-14 17:52:00,
2013-01-14 10:57:00,-5.1,-12.3,30.94,West,275,2.0,3.0,70,0.00,,,0.00,meteohub,2013-01-14 17:57:00,
2013-01-14 11:02:00,-4.4,-11.7,30.94,West,275,1.0,3.0,70,0.00,,,0.00,meteohub,2013-01-14 18:02:00,
2013-01-14 11:07:00,-3.8,-11.4,30.94,West,275,2.0,3.0,69,0.00,,,0.00,meteohub,2013-01-14 18:07:00,
2013-01-14 11:12:00,-3.5,-11.0,30.93,West,275,0.0,3.0,69,0.00,,,0.00,meteohub,2013-01-14 18:12:00,
2013-01-14 11:17:00,-2.7,-10.7,30.93,West,275,1.0,2.0,68,0.00,,,0.00,meteohub,2013-01-14 18:17:00,
2013-01-14 11:22:00,-2.4,-10.7,30.92,West,275,1.0,2.0,67,0.00,,,0.00,meteohub,2013-01-14 18:22:00,
2013-01-14 11:27:00,-1.8,-10.1,30.92,West,275,1.0,3.0,67,0.00,,,0.00,meteohub,2013-01-14 18:27:00,
2013-01-14 11:32:00,-1.1,-9.8,30.92,West,275,0.0,3.0,66,0.00,,,0.00,meteohub,2013-01-14 18:32:00,
2013-01-14 11:37:00,-0.2,-9.2,30.91,West,275,0.0,2.0,65,0.00,,,0.00,meteohub,2013-01-14 18:37:00,
2013-01-14 11:42:00,0.9,-8.9,30.90,West,275,0.0,2.0,63,0.00,,,0.00,meteohub,2013-01-14 18:42:00,
2013-01-14 11:52:00,2.5,-8.9,30.90,West,275,0.0,0.0,58,0.00,,,0.00,meteohub,2013-01-14 18:52:00,
2013-01-14 11:57:00,2.3,-9.4,30.89,West,275,0.0,1.0,57,0.00,,,0.00,meteohub,2013-01-14 18:57:00,
2013-01-14 12:02:00,2.8,-8.3,30.89,West,275,0.0,1.0,59,0.00,,,0.00,meteohub,2013-01-14 19:02:00,
2013-01-14 12:07:00,3.4,-7.8,30.88,West,275,0.0,1.0,59,0.00,,,0.00,meteohub,2013-01-14 19:07:00,
2013-01-14 12:12:00,3.4,-8.1,30.88,West,275,0.0,1.0,58,0.00,,,0.00,meteohub,2013-01-14 19:12:00,
2013-01-14 12:17:00,3.7,-7.8,30.88,West,275,1.0,1.0,58,0.00,,,0.00,meteohub,2013-01-14 19:17:00,
2013-01-14 12:22:00,3.9,-7.6,30.87,West,275,0.0,1.0,58,0.00,,,0.00,meteohub,2013-01-14 19:22:00,
2013-01-14 12:27:00,4.8,-6.7,30.87,West,275,0.0,1.0,58,0.00,,,0.00,meteohub,2013-01-14 19:27:00,
2013-01-14 12:37:00,6.4,-6.0,30.87,West,275,0.0,1.0,56,0.00,,,0.00,meteohub,2013-01-14 19:37:00,
2013-01-14 12:47:00,8.4,-5.3,30.86,West,275,0.0,1.0,53,0.00,,,0.00,meteohub,2013-01-14 19:47:00,
2013-01-14 12:52:00,9.0,-5.1,30.86,West,275,0.0,1.0,52,0.00,,,0.00,meteohub,2013-01-14 19:52:00,
2013-01-14 12:57:00,9.1,-4.9,30.86,West,275,0.0,1.0,52,0.00,,,0.00,meteohub,2013-01-14 19:57:00,
2013-01-14 13:02:00,9.9,-4.2,30.85,West,275,0.0,1.0,52,0.00,,,0.00,meteohub,2013-01-14 20:02:00,
2013-01-14 13:07:00,10.6,-4.0,30.85,West,275,0.0,1.0,51,0.00,,,0.00,meteohub,2013-01-14 20:07:00,
2013-01-14 13:12:00,10.8,-4.7,30.84,West,275,2.0,2.0,49,0.00,,,0.00,meteohub,2013-01-14 20:12:00,
2013-01-14 13:22:00,9.0,-4.7,30.84,West,275,2.0,3.0,53,0.00,,,0.00,meteohub,2013-01-14 20:22:00,
2013-01-14 13:32:00,7.0,-5.1,30.85,West,275,2.0,4.0,57,0.00,,,0.00,meteohub,2013-01-14 20:32:00,
2013-01-14 13:42:00,6.6,-4.4,30.85,West,275,3.0,4.0,60,0.00,,,0.00,meteohub,2013-01-14 20:42:00,
2013-01-14 13:47:00,7.2,-3.8,30.85,West,275,3.0,3.0,60,0.00,,,0.00,meteohub,2013-01-14 20:47:00,
2013-01-14 13:52:00,7.5,-3.8,30.85,WNW,285,3.0,3.0,59,0.00,,,0.00,meteohub,2013-01-14 20:52:00,
2013-01-14 13:57:00,7.5,-4.5,30.85,NW,307,4.0,4.0,57,0.00,,,0.00,meteohub,2013-01-14 20:57:00,
2013-01-14 14:02:00,7.3,-4.4,30.85,WNW,302,3.0,5.0,58,0.00,,,0.00,meteohub,2013-01-14 21:02:00,
2013-01-14 14:07:00,7.5,-4.2,30.85,NW,309,3.0,5.0,58,0.00,,,0.00,meteohub,2013-01-14 21:07:00,
2013-01-14 14:12:00,7.7,-4.0,30.85,NW,313,2.0,5.0,58,0.00,,,0.00,meteohub,2013-01-14 21:12:00,
2013-01-14 14:17:00,8.1,-3.6,30.86,WNW,298,3.0,5.0,58,0.00,,,0.00,meteohub,2013-01-14 21:17:00,
2013-01-14 14:22:00,8.4,-3.3,30.85,WNW,296,3.0,5.0,58,0.00,,,0.00,meteohub,2013-01-14 21:22:00,
2013-01-14 14:27:00,8.4,-3.6,30.86,WNW,296,2.0,5.0,57,0.00,,,0.00,meteohub,2013-01-14 21:27:00,
2013-01-14 14:32:00,7.9,-4.2,30.86,WNW,296,2.0,5.0,57,0.00,,,0.00,meteohub,2013-01-14 21:32:00,
2013-01-14 14:37:00,7.2,-4.5,30.86,WNW,296,2.0,4.0,58,0.00,,,0.00,meteohub,2013-01-14 21:37:00,
2013-01-14 14:42:00,7.2,-4.5,30.86,WNW,296,2.0,3.0,58,0.00,,,0.00,meteohub,2013-01-14 21:42:00,
2013-01-14 14:47:00,7.9,-3.8,30.87,WNW,296,1.0,3.0,58,0.00,,,0.00,meteohub,2013-01-14 21:47:00,
2013-01-14 14:57:00,9.0,-3.5,30.87,WNW,296,3.0,3.0,56,0.00,,,0.00,meteohub,2013-01-14 21:57:00,
2013-01-14 15:02:00,9.0,-4.7,30.87,WNW,298,2.0,6.0,53,0.00,,,0.00,meteohub,2013-01-14 22:02:00,
2013-01-14 15:07:00,9.0,-4.7,30.87,WNW,298,4.0,6.0,53,0.00,,,0.00,meteohub,2013-01-14 22:07:00,
2013-01-14 15:12:00,8.8,-4.0,30.87,NW,319,4.0,7.0,55,0.00,,,0.00,meteohub,2013-01-14 22:12:00,
2013-01-14 15:17:00,9.0,-4.4,30.88,NW,315,6.0,8.0,54,0.00,,,0.00,meteohub,2013-01-14 22:17:00,
2013-01-14 15:22:00,8.8,-4.5,30.88,NW,314,5.0,8.0,54,0.00,,,0.00,meteohub,2013-01-14 22:22:00,
2013-01-14 15:27:00,9.0,-4.4,30.88,NW,313,3.0,8.0,54,0.00,,,0.00,meteohub,2013-01-14 22:27:00,
2013-01-14 15:32:00,9.1,-4.5,30.88,WNW,297,3.0,7.0,53,0.00,,,0.00,meteohub,2013-01-14 22:32:00,
2013-01-14 15:37:00,8.8,-4.5,30.88,NW,314,4.0,7.0,54,0.00,,,0.00,meteohub,2013-01-14 22:37:00,
2013-01-14 15:42:00,9.0,-4.4,30.88,NW,312,4.0,7.0,54,0.00,,,0.00,meteohub,2013-01-14 22:42:00,
2013-01-14 15:47:00,9.5,-4.2,30.89,NW,315,3.0,7.0,53,0.00,,,0.00,meteohub,2013-01-14 22:47:00,
2013-01-14 15:52:00,9.3,-4.4,30.89,WNW,299,2.0,5.0,53,0.00,,,0.00,meteohub,2013-01-14 22:52:00,
2013-01-14 15:57:00,8.8,-4.5,30.89,NW,304,2.0,5.0,54,0.00,,,0.00,meteohub,2013-01-14 22:57:00,
2013-01-14 16:02:00,8.4,-4.7,30.89,NW,304,3.0,5.0,54,0.00,,,0.00,meteohub,2013-01-14 23:02:00,
2013-01-14 16:07:00,7.9,-5.3,30.89,NW,304,1.0,4.0,54,0.00,,,0.00,meteohub,2013-01-14 23:07:00,
2013-01-14 16:12:00,7.9,-4.9,30.90,NW,304,1.0,4.0,55,0.00,,,0.00,meteohub,2013-01-14 23:12:00,
2013-01-14 16:17:00,7.9,-5.6,30.90,NW,304,1.0,4.0,53,0.00,,,0.00,meteohub,2013-01-14 23:17:00,
2013-01-14 16:22:00,7.3,-5.8,30.90,NW,304,0.0,2.0,54,0.00,,,0.00,meteohub,2013-01-14 23:22:00,
2013-01-14 16:27:00,7.2,-5.6,30.90,NW,304,0.0,2.0,55,0.00,,,0.00,meteohub,2013-01-14 23:27:00,
2013-01-14 16:37:00,6.4,-6.7,30.91,NW,304,0.0,1.0,54,0.00,,,0.00,meteohub,2013-01-14 23:37:00,
2013-01-14 16:42:00,6.3,-6.5,30.91,NW,304,0.0,1.0,55,0.00,,,0.00,meteohub,2013-01-14 23:42:00,
2013-01-14 16:47:00,5.5,-7.1,30.91,NW,304,0.0,1.0,55,0.00,,,0.00,meteohub,2013-01-14 23:47:00,
2013-01-14 16:52:00,5.0,-7.2,30.92,NW,304,0.0,1.0,56,0.00,,,0.00,meteohub,2013-01-14 23:52:00,
2013-01-14 16:57:00,4.3,-7.6,30.92,NW,304,0.0,1.0,57,0.00,,,0.00,meteohub,2013-01-14 23:57:00,
2013-01-14 17:07:00,3.0,-8.5,30.92,NW,304,0.0,0.0,58,0.00,,,0.00,meteohub,2013-01-15 00:07:00,
2013-01-14 17:12:00,2.5,-8.5,30.93,NW,304,0.0,0.0,59,0.00,,,0.00,meteohub,2013-01-15 00:12:00,
2013-01-14 17:17:00,1.6,-9.4,30.93,NW,304,0.0,2.0,59,0.00,,,0.00,meteohub,2013-01-15 00:17:00,
2013-01-14 17:22:00,0.3,-10.3,30.94,NW,304,1.0,2.0,60,0.00,,,0.00,meteohub,2013-01-15 00:22:00,
2013-01-14 17:27:00,-0.2,-9.8,30.94,NW,304,0.0,2.0,63,0.00,,,0.00,meteohub,2013-01-15 00:27:00,
2013-01-14 17:32:00,-0.8,-9.9,30.94,NW,304,1.0,2.0,64,0.00,,,0.00,meteohub,2013-01-15 00:32:00,
2013-01-14 17:42:00,-1.8,-11.0,30.95,SE,146,2.0,2.0,64,0.00,,,0.00,meteohub,2013-01-15 00:42:00,
2013-01-14 17:47:00,-3.3,-12.6,30.96,SE,146,0.0,4.0,63,0.00,,,0.00,meteohub,2013-01-15 00:47:00,
2013-01-14 17:52:00,-4.9,-13.9,30.96,SE,146,2.0,4.0,64,0.00,,,0.00,meteohub,2013-01-15 00:52:00,
2013-01-14 17:57:00,-6.3,-15.0,30.97,SE,142,1.0,4.0,65,0.00,,,0.00,meteohub,2013-01-15 00:57:00,
2013-01-14 18:02:00,-7.4,-15.2,30.97,SE,142,0.0,3.0,68,0.00,,,0.00,meteohub,2013-01-15 01:02:00,
2013-01-14 18:07:00,-7.8,-14.1,30.97,SE,142,0.0,3.0,73,0.00,,,0.00,meteohub,2013-01-15 01:07:00,
2013-01-14 18:17:00,-7.4,-13.0,30.98,SE,142,0.0,1.0,76,0.00,,,0.00,meteohub,2013-01-15 01:17:00,
2013-01-14 18:22:00,-7.2,-12.8,30.98,SE,142,0.0,1.0,76,0.00,,,0.00,meteohub,2013-01-15 01:22:00,
2013-01-14 18:27:00,-6.9,-12.6,30.98,SE,142,1.0,1.0,75,0.00,,,0.00,meteohub,2013-01-15 01:27:00,
2013-01-14 18:37:00,-6.9,-13.0,30.99,SE,142,0.0,2.0,74,0.00,,,0.00,meteohub,2013-01-15 01:37:00,
2013-01-14 18:42:00,-6.9,-13.2,30.99,SE,142,0.0,2.0,73,0.00,,,0.00,meteohub,2013-01-15 01:42:00,
2013-01-14 18:47:00,-7.2,-13.9,31.00,SE,142,2.0,2.0,72,0.00,,,0.00,meteohub,2013-01-15 01:47:00,
2013-01-14 18:52:00,-7.4,-13.7,31.00,SE,142,0.0,3.0,73,0.00,,,0.00,meteohub,2013-01-15 01:52:00,
2013-01-14 18:57:00,-7.8,-14.1,31.00,SE,142,0.0,3.0,73,0.00,,,0.00,meteohub,2013-01-15 01:57:00,
2013-01-14 19:02:00,-7.8,-13.9,31.00,SE,141,0.0,3.0,74,0.00,,,0.00,meteohub,2013-01-15 02:02:00,
2013-01-14 19:07:00,-7.8,-13.9,31.01,SE,141,0.0,1.0,74,0.00,,,0.00,meteohub,2013-01-15 02:07:00,
2013-01-14 19:12:00,-8.0,-14.1,31.01,SE,141,0.0,1.0,74,0.00,,,0.00,meteohub,2013-01-15 02:12:00,
2013-01-14 19:17:00,-8.0,-13.7,31.01,SE,141,2.0,2.0,75,0.00,,,0.00,meteohub,2013-01-15 02:17:00,
2013-01-14 19:22:00,-8.1,-13.9,31.01,SE,141,1.0,2.0,75,0.00,,,0.00,meteohub,2013-01-15 02:22:00,
2013-01-14 19:27:00,-9.0,-15.9,31.02,SE,141,0.0,2.0,71,0.00,,,0.00,meteohub,2013-01-15 02:27:00,
2013-01-14 19:32:00,-9.8,-15.7,31.02,SE,141,0.0,2.0,74,0.00,,,0.00,meteohub,2013-01-15 02:32:00,
2013-01-14 19:42:00,-11.0,-17.3,31.03,SE,141,0.0,2.0,73,0.00,,,0.00,meteohub,2013-01-15 02:42:00,
2013-01-14 19:47:00,-11.4,-17.1,31.02,SE,141,0.0,1.0,75,0.00,,,0.00,meteohub,2013-01-15 02:47:00,
2013-01-14 19:52:00,-12.5,-18.6,31.03,SE,141,0.0,1.0,73,0.00,,,0.00,meteohub,2013-01-15 02:52:00,
2013-01-14 19:57:00,-13.0,-18.9,31.03,SE,141,0.0,1.0,74,0.00,,,0.00,meteohub,2013-01-15 02:57:00,
2013-01-14 20:02:00,-13.2,-18.4,31.03,SE,141,0.0,1.0,77,0.00,,,0.00,meteohub,2013-01-15 03:02:00,
2013-01-14 20:07:00,-13.4,-18.2,31.03,SE,141,0.0,1.0,78,0.00,,,0.00,meteohub,2013-01-15 03:07:00,
2013-01-14 20:12:00,-13.5,-18.6,31.03,SE,141,0.0,1.0,77,0.00,,,0.00,meteohub,2013-01-15 03:12:00,
2013-01-14 20:17:00,-13.5,-18.4,31.04,SE,141,0.0,2.0,78,0.00,,,0.00,meteohub,2013-01-15 03:17:00,
2013-01-14 20:22:00,-13.5,-18.4,31.04,SE,141,0.0,2.0,78,0.00,,,0.00,meteohub,2013-01-15 03:22:00,
2013-01-14 20:27:00,-13.5,-18.4,31.05,SE,141,0.0,1.0,78,0.00,,,0.00,meteohub,2013-01-15 03:27:00,
2013-01-14 20:32:00,-13.9,-18.8,31.05,SE,141,0.0,0.0,78,0.00,,,0.00,meteohub,2013-01-15 03:32:00,
2013-01-14 20:42:00,-14.8,-19.8,31.04,SE,141,0.0,0.0,77,0.00,,,0.00,meteohub,2013-01-15 03:42:00,
2013-01-14 20:52:00,-14.4,-18.6,31.05,SE,141,0.0,0.0,81,0.00,,,0.00,meteohub,2013-01-15 03:52:00,
2013-01-14 20:57:00,-14.6,-19.5,31.05,SE,141,0.0,1.0,78,0.00,,,0.00,meteohub,2013-01-15 03:57:00,
2013-01-14 21:02:00,-14.8,-19.5,31.05,SE,141,0.0,1.0,79,0.00,,,0.00,meteohub,2013-01-15 04:02:00,
2013-01-14 21:12:00,-15.7,-20.7,31.05,SE,141,0.0,1.0,77,0.00,,,0.00,meteohub,2013-01-15 04:12:00,
2013-01-14 21:17:00,-16.1,-20.9,31.06,SE,141,0.0,1.0,78,0.00,,,0.00,meteohub,2013-01-15 04:17:00,
2013-01-14 21:22:00,-16.2,-20.7,31.06,SE,141,0.0,1.0,79,0.00,,,0.00,meteohub,2013-01-15 04:22:00,
2013-01-14 21:27:00,-16.4,-20.9,31.07,SE,141,0.0,1.0,79,0.00,,,0.00,meteohub,2013-01-15 04:27:00,
2013-01-14 21:32:00,-16.6,-21.1,31.07,SE,141,0.0,1.0,79,0.00,,,0.00,meteohub,2013-01-15 04:32:00,
2013-01-14 21:37:00,-16.8,-21.3,31.07,SE,141,0.0,0.0,79,0.00,,,0.00,meteohub,2013-01-15 04:37:00,
2013-01-14 21:42:00,-17.0,-21.5,31.07,SE,141,0.0,0.0,79,0.00,,,0.00,meteohub,2013-01-15 04:42:00,
2013-01-14 21:47:00,-17.0,-21.3,31.08,SE,141,0.0,1.0,80,0.00,,,0.00,meteohub,2013-01-15 04:47:00,
2013-01-14 21:57:00,-17.9,-22.9,31.08,SE,141,0.0,2.0,77,0.00,,,0.00,meteohub,2013-01-15 04:57:00,
2013-01-14 22:02:00,-18.6,-23.8,31.08,SE,141,0.0,2.0,76,0.00,,,0.00,meteohub,2013-01-15 05:02:00,
2013-01-14 22:07:00,-18.9,-24.0,31.08,SE,141,0.0,2.0,77,0.00,,,0.00,meteohub,2013-01-15 05:07:00,
2013-01-14 22:12:00,-19.1,-23.8,31.08,SE,141,0.0,1.0,78,0.00,,,0.00,meteohub,2013-01-15 05:12:00,
2013-01-14 22:17:00,-19.1,-23.4,31.08,SE,141,0.0,0.0,80,0.00,,,0.00,meteohub,2013-01-15 05:17:00,
2013-01-14 22:22:00,-18.9,-22.9,31.08,SE,141,0.0,0.0,81,0.00,,,0.00,meteohub,2013-01-15 05:22:00,
2013-01-14 22:27:00,-18.9,-22.9,31.08,SE,141,0.0,0.0,81,0.00,,,0.00,meteohub,2013-01-15 05:27:00,
2013-01-14 22:32:00,-18.9,-23.4,31.08,SE,141,0.0,1.0,79,0.00,,,0.00,meteohub,2013-01-15 05:32:00,
2013-01-14 22:37:00,-19.7,-24.7,31.08,SE,141,0.0,1.0,77,0.00,,,0.00,meteohub,2013-01-15 05:37:00,
2013-01-14 22:42:00,-19.7,-24.2,31.08,SE,141,0.0,1.0,79,0.00,,,0.00,meteohub,2013-01-15 05:42:00,
2013-01-14 22:47:00,-19.7,-24.2,31.08,SE,141,0.0,1.0,79,0.00,,,0.00,meteohub,2013-01-15 05:47:00,
2013-01-14 22:52:00,-19.8,-24.5,31.09,SE,141,0.0,1.0,78,0.00,,,0.00,meteohub,2013-01-15 05:52:00,
2013-01-14 22:57:00,-20.2,-24.9,31.09,SE,141,0.0,1.0,78,0.00,,,0.00,meteohub,2013-01-15 05:57:00,
2013-01-14 23:02:00,-20.7,-25.6,31.10,SE,141,0.0,1.0,77,0.00,,,0.00,meteohub,2013-01-15 06:02:00,
2013-01-14 23:07:00,-20.7,-25.4,31.10,SE,141,1.0,0.0,78,0.00,,,0.00,meteohub,2013-01-15 06:07:00,
2013-01-14 23:17:00,-20.9,-25.6,31.10,SE,141,0.0,1.0,78,0.00,,,0.00,meteohub,2013-01-15 06:17:00,
2013-01-14 23:22:00,-21.8,-27.0,31.10,SE,141,0.0,1.0,76,0.00,,,0.00,meteohub,2013-01-15 06:22:00,
2013-01-14 23:27:00,-22.4,-27.2,31.10,SE,141,0.0,2.0,77,0.00,,,0.00,meteohub,2013-01-15 06:27:00,
2013-01-14 23:32:00,-22.2,-26.7,31.10,SE,141,2.0,3.0,79,0.00,,,0.00,meteohub,2013-01-15 06:32:00,
2013-01-14 23:37:00,-21.8,-26.0,31.10,SE,141,0.0,3.0,80,0.00,,,0.00,meteohub,2013-01-15 06:37:00,
2013-01-14 23:42:00,-21.6,-26.1,31.10,SE,141,0.0,2.0,79,0.00,,,0.00,meteohub,2013-01-15 06:42:00,
2013-01-14 23:47:00,-21.5,-26.0,31.10,SE,141,0.0,2.0,79,0.00,,,0.00,meteohub,2013-01-15 06:47:00,
2013-01-14 23:52:00,-22.0,-26.9,31.10,SE,141,0.0,1.0,77,0.00,,,0.00,meteohub,2013-01-15 06:52:00,
2013-01-14 23:57:00,-22.7,-28.1,31.10,SE,141,0.0,1.0,75,0.00,,,0.00,meteohub,2013-01-15 06:57:00,